createdAt,value
2022-08-03T00:00:40.207Z,21.63
2022-08-03T00:01:44.791Z,21.54
2022-08-03T00:02:48.684Z,21.62
2022-08-03T00:03:52.818Z,21.53
2022-08-03T00:04:56.570Z,21.45
2022-08-03T00:06:04.103Z,21.34
2022-08-03T00:07:08.967Z,21.46
2022-08-03T00:08:13.819Z,21.47
2022-08-03T00:09:23.541Z,21.35
2022-08-03T00:10:27.781Z,21.42
2022-08-03T00:11:32.152Z,21.45
2022-08-03T00:12:36.670Z,21.38
2022-08-03T00:13:40.570Z,21.45
2022-08-03T00:14:44.360Z,21.50
2022-08-03T00:15:48.201Z,21.52
2022-08-03T00:16:52.042Z,21.46
2022-08-03T00:17:55.929Z,21.56
2022-08-03T00:19:00.808Z,21.50
2022-08-03T00:20:05.402Z,21.57
2022-08-03T00:21:09.875Z,21.55
2022-08-03T00:22:14.117Z,21.57
2022-08-03T00:23:18.291Z,21.57
2022-08-03T00:24:22.210Z,21.57
2022-08-03T00:25:26.029Z,21.57
2022-08-03T00:26:30.416Z,21.55
2022-08-03T00:27:34.802Z,21.59
2022-08-03T00:28:39.535Z,21.58
2022-08-03T00:29:59.642Z,21.57
2022-08-03T00:31:04.223Z,21.56
2022-08-03T00:32:08.145Z,21.54
2022-08-03T00:33:16.460Z,21.52
2022-08-03T00:34:36.301Z,21.45
2022-08-03T00:35:50.132Z,21.54
2022-08-03T00:36:55.001Z,21.43
2022-08-03T00:38:00.031Z,21.50
2022-08-03T00:39:04.384Z,21.49
2022-08-03T00:40:10.398Z,21.47
2022-08-03T00:41:15.579Z,21.46
2022-08-03T00:42:19.652Z,21.45
2022-08-03T00:43:29.301Z,21.43
2022-08-03T00:44:44.256Z,21.41
2022-08-03T00:45:48.468Z,21.41
2022-08-03T00:46:54.714Z,21.42
2022-08-03T00:47:59.387Z,21.42
2022-08-03T00:49:03.386Z,21.40
2022-08-03T00:50:07.957Z,21.40
2022-08-03T00:51:11.791Z,21.40
2022-08-03T00:52:17.491Z,21.41
2022-08-03T00:53:22.382Z,21.41
2022-08-03T00:54:27.818Z,21.41
2022-08-03T00:55:31.924Z,21.44
2022-08-03T00:56:37.836Z,21.45
2022-08-03T00:57:44.052Z,21.40
2022-08-03T00:58:48.031Z,21.44
2022-08-03T00:59:52.259Z,21.40
2022-08-03T01:00:56.089Z,21.39
2022-08-03T01:02:00.014Z,21.39
2022-08-03T01:03:04.027Z,21.34
2022-08-03T01:04:07.893Z,21.40
2022-08-03T01:05:12.329Z,21.38
2022-08-03T01:06:36.402Z,21.33
2022-08-03T01:08:16.604Z,21.34
2022-08-03T01:09:50.063Z,21.24
2022-08-03T01:11:15.971Z,21.28
2022-08-03T01:12:45.855Z,21.28
2022-08-03T01:14:19.342Z,21.25
2022-08-03T01:15:40.928Z,21.24
2022-08-03T01:17:02.340Z,21.20
2022-08-03T01:18:33.056Z,21.21
2022-08-03T01:19:51.038Z,21.19
2022-08-03T01:21:01.391Z,21.14
2022-08-03T01:22:23.706Z,21.10
2022-08-03T01:24:21.393Z,21.14
2022-08-03T01:26:22.511Z,21.18
2022-08-03T01:27:43.707Z,21.12
2022-08-03T01:29:09.206Z,21.10
2022-08-03T01:30:14.332Z,21.11
2022-08-03T01:31:27.665Z,21.08
2022-08-03T01:32:53.471Z,21.09
2022-08-03T01:34:14.759Z,21.07
2022-08-03T01:35:29.594Z,20.96
2022-08-03T01:36:43.545Z,21.04
2022-08-03T01:38:01.391Z,21.00
2022-08-03T01:39:11.717Z,21.00
2022-08-03T01:40:18.038Z,20.83
2022-08-03T01:41:37.360Z,21.01
2022-08-03T01:42:44.861Z,21.00
2022-08-03T01:44:28.448Z,20.90
2022-08-03T01:45:19.066Z,20.99
2022-08-03T01:46:26.461Z,20.98
2022-08-03T01:47:33.076Z,20.92
2022-08-03T01:48:42.307Z,20.73
2022-08-03T01:49:48.269Z,20.95
2022-08-03T01:50:56.139Z,20.95
2022-08-03T01:52:05.390Z,20.91
2022-08-03T01:53:12.156Z,20.84
2022-08-03T01:54:17.709Z,20.96
2022-08-03T01:55:25.279Z,20.94
2022-08-03T01:56:32.338Z,20.92
2022-08-03T01:58:05.634Z,20.91
2022-08-03T01:59:05.696Z,20.89
2022-08-03T02:00:10.863Z,20.88
2022-08-03T02:01:17.524Z,20.86
2022-08-03T02:02:33.044Z,20.77
2022-08-03T02:04:00.243Z,20.80
2022-08-03T02:05:10.625Z,20.79
2022-08-03T02:06:59.661Z,20.75
2022-08-03T02:07:45.429Z,20.74
2022-08-03T02:08:53.305Z,20.70
2022-08-03T02:09:59.910Z,20.70
2022-08-03T02:11:06.147Z,20.72
2022-08-03T02:12:12.597Z,20.71
2022-08-03T02:13:20.915Z,20.54
2022-08-03T02:14:27.060Z,20.72
2022-08-03T02:15:33.752Z,20.69
2022-08-03T02:16:38.949Z,20.69
2022-08-03T02:17:45.997Z,20.63
2022-08-03T02:18:50.422Z,20.67
2022-08-03T02:19:58.715Z,20.65
2022-08-03T02:21:10.815Z,20.63
2022-08-03T02:22:16.487Z,20.65
2022-08-03T02:23:21.198Z,20.65
2022-08-03T02:24:25.423Z,20.65
2022-08-03T02:25:32.265Z,20.53
2022-08-03T02:26:40.335Z,20.62
2022-08-03T02:27:55.473Z,20.63
2022-08-03T02:29:13.935Z,20.65
2022-08-03T02:30:20.506Z,20.68
2022-08-03T02:31:31.285Z,20.69
2022-08-03T02:32:43.042Z,20.70
2022-08-03T02:34:03.724Z,20.72
2022-08-03T02:35:13.790Z,20.71
2022-08-03T02:36:25.667Z,20.71
2022-08-03T02:37:35.930Z,20.73
2022-08-03T02:38:44.569Z,20.72
2022-08-03T02:39:53.541Z,20.72
2022-08-03T02:41:00.633Z,20.65
2022-08-03T02:42:09.149Z,20.63
2022-08-03T02:43:23.673Z,20.68
2022-08-03T02:44:32.789Z,20.68
2022-08-03T02:45:45.938Z,20.70
2022-08-03T02:46:57.890Z,20.53
2022-08-03T02:48:07.136Z,20.70
2022-08-03T02:49:40.830Z,20.62
2022-08-03T02:50:42.957Z,20.61
2022-08-03T02:51:52.085Z,20.55
2022-08-03T02:52:59.065Z,20.53
2022-08-03T02:54:05.489Z,20.57
2022-08-03T02:55:12.597Z,20.56
2022-08-03T02:56:19.263Z,20.58
2022-08-03T02:57:27.552Z,20.56
2022-08-03T02:58:33.866Z,20.57
2022-08-03T02:59:39.646Z,20.56
2022-08-03T03:00:46.198Z,20.53
2022-08-03T03:01:51.821Z,20.55
2022-08-03T03:03:02.954Z,20.56
2022-08-03T03:04:10.222Z,20.41
2022-08-03T03:05:54.568Z,20.56
2022-08-03T03:06:43.297Z,20.57
2022-08-03T03:07:53.145Z,20.57
2022-08-03T03:08:59.930Z,20.57
2022-08-03T03:10:05.597Z,20.53
2022-08-03T03:11:11.685Z,20.51
2022-08-03T03:12:18.496Z,20.50
2022-08-03T03:13:23.214Z,20.50
2022-08-03T03:14:33.199Z,20.49
2022-08-03T03:15:41.423Z,20.46
2022-08-03T03:16:50.698Z,20.45
2022-08-03T03:18:02.892Z,20.45
2022-08-03T03:19:09.590Z,20.45
2022-08-03T03:20:15.964Z,20.38
2022-08-03T03:21:37.377Z,20.45
2022-08-03T03:22:45.263Z,20.45
2022-08-03T03:23:50.757Z,20.44
2022-08-03T03:24:56.151Z,20.42
2022-08-03T03:26:00.969Z,20.39
2022-08-03T03:27:05.396Z,20.34
2022-08-03T03:28:11.869Z,20.28
2022-08-03T03:29:16.795Z,20.21
2022-08-03T03:30:20.794Z,20.24
2022-08-03T03:31:25.137Z,20.20
2022-08-03T03:32:30.650Z,20.20
2022-08-03T03:33:36.583Z,20.17
2022-08-03T03:34:41.403Z,20.21
2022-08-03T03:35:48.675Z,20.22
2022-08-03T03:36:52.953Z,20.19
2022-08-03T03:37:57.646Z,20.23
2022-08-03T03:39:15.142Z,20.24
2022-08-03T03:40:19.931Z,20.25
2022-08-03T03:41:24.829Z,20.25
2022-08-03T03:42:28.849Z,20.25
2022-08-03T03:43:33.626Z,20.24
2022-08-03T03:44:37.599Z,20.26
2022-08-03T03:45:44.619Z,20.24
2022-08-03T03:46:48.821Z,20.24
2022-08-03T03:47:53.369Z,20.22
2022-08-03T03:48:57.423Z,20.21
2022-08-03T03:50:04.727Z,20.25
2022-08-03T03:51:10.107Z,20.25
2022-08-03T03:52:14.154Z,20.26
2022-08-03T03:53:18.357Z,20.23
2022-08-03T03:54:22.497Z,20.25
2022-08-03T03:55:30.642Z,20.25
2022-08-03T03:56:34.556Z,20.25
2022-08-03T03:57:38.629Z,20.26
2022-08-03T03:58:42.493Z,20.25
2022-08-03T03:59:46.405Z,20.29
2022-08-03T04:00:51.175Z,20.27
2022-08-03T04:01:58.856Z,20.27
2022-08-03T04:03:03.261Z,20.25
2022-08-03T04:04:25.677Z,20.29
2022-08-03T04:05:48.165Z,20.30
2022-08-03T04:07:10.617Z,20.32
2022-08-03T04:08:38.137Z,20.31
2022-08-03T04:10:14.100Z,20.33
2022-08-03T04:11:30.271Z,20.34
2022-08-03T04:12:38.995Z,20.27
2022-08-03T04:14:11.167Z,20.36
2022-08-03T04:15:18.135Z,20.31
2022-08-03T04:16:28.206Z,20.39
2022-08-03T04:17:33.136Z,20.40
2022-08-03T04:18:41.925Z,20.41
2022-08-03T04:19:54.099Z,20.43
2022-08-03T04:21:04.896Z,20.42
2022-08-03T04:22:14.554Z,20.44
2022-08-03T04:23:24.873Z,20.27
2022-08-03T04:24:39.081Z,20.45
2022-08-03T04:25:44.710Z,20.46
2022-08-03T04:26:52.883Z,20.47
2022-08-03T04:28:08.240Z,20.50
2022-08-03T04:29:29.284Z,20.52
2022-08-03T04:30:38.230Z,20.53
2022-08-03T04:31:46.929Z,20.54
2022-08-03T04:32:52.451Z,20.56
2022-08-03T04:33:57.676Z,20.58
2022-08-03T04:35:01.798Z,20.63
2022-08-03T04:36:10.300Z,20.64
2022-08-03T04:37:30.513Z,20.69
2022-08-03T04:38:56.917Z,20.73
2022-08-03T04:40:06.247Z,20.75
2022-08-03T04:41:11.204Z,20.75
2022-08-03T04:42:19.058Z,20.76
2022-08-03T04:43:26.051Z,20.77
2022-08-03T04:44:31.956Z,20.79
2022-08-03T04:45:37.596Z,20.83
2022-08-03T04:46:50.529Z,20.87
2022-08-03T04:47:58.078Z,20.92
2022-08-03T04:49:02.967Z,20.95
2022-08-03T04:50:12.527Z,21.00
2022-08-03T04:51:18.343Z,21.04
2022-08-03T04:52:22.594Z,21.07
2022-08-03T04:53:26.605Z,21.08
2022-08-03T04:54:31.323Z,21.14
2022-08-03T04:55:36.807Z,21.14
2022-08-03T04:56:41.920Z,21.08
2022-08-03T04:57:45.888Z,21.20
2022-08-03T04:58:49.821Z,21.23
2022-08-03T05:00:01.499Z,21.25
2022-08-03T05:01:06.848Z,21.18
2022-08-03T05:02:10.670Z,21.22
2022-08-03T05:03:23.803Z,21.34
2022-08-03T05:04:28.518Z,21.38
2022-08-03T05:05:49.429Z,21.41
2022-08-03T05:06:55.860Z,21.47
2022-08-03T05:08:00.774Z,21.51
2022-08-03T05:09:07.785Z,21.56
2022-08-03T05:10:16.507Z,21.62
2022-08-03T05:11:20.760Z,21.69
2022-08-03T05:12:25.844Z,21.77
2022-08-03T05:13:31.129Z,21.80
2022-08-03T05:14:39.750Z,21.88
2022-08-03T05:15:43.671Z,21.81
2022-08-03T05:16:47.757Z,22.04
2022-08-03T05:17:51.660Z,22.12
2022-08-03T05:18:55.438Z,22.18
2022-08-03T05:19:59.525Z,22.24
2022-08-03T05:21:03.576Z,22.35
2022-08-03T05:22:07.640Z,22.40
2022-08-03T05:23:11.797Z,22.51
2022-08-03T05:24:15.776Z,22.62
2022-08-03T05:25:21.431Z,22.72
2022-08-03T05:26:28.237Z,22.73
2022-08-03T05:27:32.244Z,22.91
2022-08-03T05:28:36.139Z,23.01
2022-08-03T05:29:40.074Z,23.10
2022-08-03T05:30:44.245Z,23.21
2022-08-03T05:31:48.158Z,23.30
2022-08-03T05:32:53.650Z,23.41
2022-08-03T05:33:58.081Z,23.53
2022-08-03T05:35:57.397Z,23.63
2022-08-03T05:36:25.995Z,23.77
2022-08-03T05:37:30.094Z,23.88
2022-08-03T05:38:35.412Z,23.97
2022-08-03T05:39:39.563Z,24.05
2022-08-03T05:40:56.836Z,23.97
2022-08-03T05:42:02.904Z,24.22
2022-08-03T05:43:06.922Z,24.27
2022-08-03T05:44:11.103Z,24.33
2022-08-03T05:45:15.124Z,24.40
2022-08-03T05:46:18.931Z,24.47
2022-08-03T05:47:23.054Z,24.52
2022-08-03T05:48:27.216Z,24.48
2022-08-03T05:49:31.327Z,24.66
2022-08-03T05:50:39.897Z,24.73
2022-08-03T05:51:46.985Z,24.82
2022-08-03T05:53:03.854Z,24.92
2022-08-03T05:54:07.986Z,25.00
2022-08-03T05:55:14.114Z,25.02
2022-08-03T05:56:18.282Z,25.13
2022-08-03T05:57:22.437Z,25.26
2022-08-03T05:58:26.264Z,25.36
2022-08-03T05:59:38.492Z,25.40
2022-08-03T06:00:42.547Z,25.34
2022-08-03T06:01:46.953Z,25.35
2022-08-03T06:02:51.352Z,25.20
2022-08-03T06:03:55.245Z,25.12
2022-08-03T06:04:59.111Z,25.01
2022-08-03T06:06:02.938Z,24.98
2022-08-03T06:07:07.101Z,24.90
2022-08-03T06:08:10.971Z,24.83
2022-08-03T06:09:19.789Z,24.82
2022-08-03T06:10:35.007Z,24.94
2022-08-03T06:11:42.310Z,25.13
2022-08-03T06:12:51.208Z,25.29
2022-08-03T06:13:57.447Z,25.49
2022-08-03T06:15:01.712Z,25.62
2022-08-03T06:16:06.378Z,25.84
2022-08-03T06:17:10.796Z,25.99
2022-08-03T06:18:16.497Z,26.12
2022-08-03T06:19:20.678Z,26.18
2022-08-03T06:20:26.619Z,26.41
2022-08-03T06:21:31.327Z,26.56
2022-08-03T06:22:36.271Z,26.74
2022-08-03T06:23:55.680Z,26.99
2022-08-03T06:25:04.076Z,27.14
2022-08-03T06:26:09.160Z,27.28
2022-08-03T06:27:14.237Z,27.44
2022-08-03T06:28:51.500Z,27.62
2022-08-03T06:29:42.409Z,27.85
2022-08-03T06:30:47.058Z,28.00
2022-08-03T06:31:53.918Z,28.19
2022-08-03T06:32:57.823Z,28.39
2022-08-03T06:34:32.839Z,28.55
2022-08-03T06:35:29.573Z,28.89
2022-08-03T06:36:34.010Z,29.11
2022-08-03T06:37:46.770Z,29.34
2022-08-03T06:38:50.582Z,29.56
2022-08-03T06:39:54.885Z,29.81
2022-08-03T06:40:58.889Z,29.96
2022-08-03T06:42:02.875Z,30.30
2022-08-03T06:43:12.338Z,30.57
2022-08-03T06:44:16.724Z,30.84
2022-08-03T06:45:20.895Z,30.98
2022-08-03T06:46:26.017Z,31.23
2022-08-03T06:47:30.019Z,31.36
2022-08-03T06:48:34.942Z,31.48
2022-08-03T06:49:38.744Z,31.61
2022-08-03T06:50:44.528Z,31.74
2022-08-03T06:52:05.268Z,31.90
2022-08-03T06:53:11.384Z,32.09
2022-08-03T06:54:24.672Z,32.30
2022-08-03T06:55:28.955Z,32.41
2022-08-03T06:56:32.708Z,32.60
2022-08-03T06:57:36.539Z,32.78
2022-08-03T06:58:40.529Z,32.99
2022-08-03T07:00:09.903Z,33.04
2022-08-03T07:01:09.215Z,32.97
2022-08-03T07:02:19.050Z,32.54
2022-08-03T07:03:23.887Z,32.10
2022-08-03T07:04:27.944Z,31.74
2022-08-03T07:05:36.118Z,31.44
2022-08-03T07:06:41.147Z,31.22
2022-08-03T07:07:45.348Z,30.99
2022-08-03T07:08:52.301Z,30.89
2022-08-03T07:09:58.295Z,30.74
2022-08-03T07:11:02.914Z,30.76
2022-08-03T07:12:08.504Z,30.92
2022-08-03T07:13:13.534Z,31.15
2022-08-03T07:14:17.236Z,31.48
2022-08-03T07:15:54.600Z,31.79
2022-08-03T07:16:45.448Z,32.18
2022-08-03T07:17:49.391Z,32.33
2022-08-03T07:18:53.186Z,32.33
2022-08-03T07:19:58.106Z,32.32
2022-08-03T07:21:01.987Z,32.25
2022-08-03T07:22:05.897Z,32.19
2022-08-03T07:23:10.147Z,32.10
2022-08-03T07:24:21.813Z,32.05
2022-08-03T07:25:26.280Z,32.16
2022-08-03T07:26:30.497Z,32.29
2022-08-03T07:27:34.749Z,32.71
2022-08-03T07:28:38.509Z,33.31
2022-08-03T07:29:42.604Z,34.12
2022-08-03T07:30:46.739Z,34.83
2022-08-03T07:31:50.877Z,35.65
2022-08-03T07:32:55.041Z,36.48
2022-08-03T07:33:59.082Z,37.34
2022-08-03T07:35:16.907Z,38.03
2022-08-03T07:36:28.777Z,38.94
2022-08-03T07:37:33.925Z,39.57
2022-08-03T07:38:38.151Z,39.96
2022-08-03T07:39:42.267Z,40.04
2022-08-03T07:40:46.700Z,39.79
2022-08-03T07:41:52.067Z,39.43
2022-08-03T07:42:56.142Z,39.44
2022-08-03T07:44:00.643Z,39.42
2022-08-03T07:45:06.114Z,39.29
2022-08-03T07:46:10.100Z,38.97
2022-08-03T07:47:22.778Z,38.58
2022-08-03T07:48:27.049Z,38.68
2022-08-03T07:49:32.158Z,39.00
2022-08-03T07:50:36.257Z,39.62
2022-08-03T07:51:40.706Z,40.21
2022-08-03T07:52:51.724Z,40.68
2022-08-03T07:53:57.962Z,41.29
2022-08-03T07:55:02.128Z,41.87
2022-08-03T07:56:06.446Z,42.27
2022-08-03T07:57:15.789Z,42.94
2022-08-03T07:58:24.015Z,43.42
2022-08-03T07:59:28.831Z,43.96
2022-08-03T08:00:53.475Z,44.48
2022-08-03T08:01:57.836Z,44.77
2022-08-03T08:03:02.516Z,45.07
2022-08-03T08:04:06.514Z,45.34
2022-08-03T08:05:11.393Z,45.33
2022-08-03T08:06:16.706Z,45.36
2022-08-03T08:07:20.817Z,45.47
2022-08-03T08:08:25.096Z,45.53
2022-08-03T08:09:29.116Z,45.48
2022-08-03T08:10:33.341Z,45.36
2022-08-03T08:11:40.099Z,45.23
2022-08-03T08:12:44.549Z,45.31
2022-08-03T08:13:48.417Z,45.33
2022-08-03T08:14:52.654Z,44.97
2022-08-03T08:15:57.471Z,44.78
2022-08-03T08:17:04.455Z,44.72
2022-08-03T08:18:11.470Z,45.17
2022-08-03T08:19:16.924Z,45.39
2022-08-03T08:20:34.881Z,45.52
2022-08-03T08:21:53.633Z,45.45
2022-08-03T08:23:19.913Z,44.27
2022-08-03T08:24:34.368Z,43.72
2022-08-03T08:25:38.681Z,43.86
2022-08-03T08:26:42.679Z,44.03
2022-08-03T08:28:31.930Z,44.40
2022-08-03T08:29:13.689Z,44.93
2022-08-03T08:30:20.914Z,45.11
2022-08-03T08:31:27.677Z,45.38
2022-08-03T08:32:32.397Z,45.80
2022-08-03T08:34:01.462Z,46.09
2022-08-03T08:35:00.750Z,46.35
2022-08-03T08:36:05.183Z,46.40
2022-08-03T08:37:09.285Z,46.46
2022-08-03T08:38:13.269Z,46.47
2022-08-03T08:39:17.588Z,46.02
2022-08-03T08:40:23.850Z,45.77
2022-08-03T08:41:32.071Z,45.67
2022-08-03T08:42:40.298Z,45.60
2022-08-03T08:43:48.726Z,45.61
2022-08-03T08:44:53.163Z,45.59
2022-08-03T08:46:00.030Z,45.83
2022-08-03T08:47:05.049Z,45.77
2022-08-03T08:48:13.516Z,45.59
2022-08-03T08:49:23.819Z,45.32
2022-08-03T08:50:28.416Z,44.92
2022-08-03T08:51:59.353Z,44.66
2022-08-03T08:53:04.475Z,44.29
2022-08-03T08:54:10.097Z,44.18
2022-08-03T08:55:20.759Z,44.29
2022-08-03T08:56:27.255Z,44.34
2022-08-03T08:57:49.847Z,44.42
2022-08-03T08:58:59.385Z,44.49
2022-08-03T09:00:10.080Z,44.68
2022-08-03T09:01:14.310Z,44.92
2022-08-03T09:02:19.078Z,45.00
2022-08-03T09:03:29.742Z,45.08
2022-08-03T09:04:35.096Z,45.03
2022-08-03T09:05:55.306Z,45.24
2022-08-03T09:07:19.241Z,45.27
2022-08-03T09:08:24.629Z,45.24
2022-08-03T09:10:10.901Z,45.22
2022-08-03T09:10:53.025Z,45.09
2022-08-03T09:12:09.024Z,44.80
2022-08-03T09:13:22.363Z,44.57
2022-08-03T09:14:36.739Z,44.22
2022-08-03T09:15:42.562Z,43.58
2022-08-03T09:17:05.461Z,42.90
2022-08-03T09:18:09.992Z,42.51
2022-08-03T09:19:15.634Z,42.27
2022-08-03T09:20:22.614Z,41.86
2022-08-03T09:21:32.606Z,41.43
2022-08-03T09:22:53.112Z,40.91
2022-08-03T09:24:02.862Z,40.43
2022-08-03T09:25:24.386Z,40.01
2022-08-03T09:26:32.175Z,39.03
2022-08-03T09:27:46.941Z,38.51
2022-08-03T09:29:07.139Z,37.87
2022-08-03T09:30:34.519Z,37.40
2022-08-03T09:31:47.074Z,37.09
2022-08-03T09:32:51.437Z,36.80
2022-08-03T09:34:01.475Z,36.54
2022-08-03T09:35:06.616Z,36.33
2022-08-03T09:36:38.494Z,36.08
2022-08-03T09:38:12.027Z,35.94
2022-08-03T09:39:15.795Z,35.65
2022-08-03T09:40:36.638Z,35.45
2022-08-03T09:41:44.255Z,35.36
2022-08-03T09:42:57.863Z,35.18
2022-08-03T09:44:02.074Z,35.14
2022-08-03T09:45:07.003Z,35.01
2022-08-03T09:46:11.006Z,34.94
2022-08-03T09:47:28.360Z,34.85
2022-08-03T09:48:37.563Z,34.69
2022-08-03T09:49:56.189Z,34.47
2022-08-03T09:51:12.765Z,34.35
2022-08-03T09:52:39.438Z,34.24
2022-08-03T09:53:51.477Z,34.11
2022-08-03T09:56:32.514Z,34.08
2022-08-03T09:56:48.153Z,34.04
2022-08-03T09:57:52.989Z,33.95
2022-08-03T09:58:57.281Z,33.85
2022-08-03T10:00:12.371Z,33.71
2022-08-03T10:01:25.323Z,33.69
2022-08-03T10:02:29.585Z,33.60
2022-08-03T10:04:03.427Z,33.53
2022-08-03T10:05:01.893Z,33.48
2022-08-03T10:06:19.939Z,33.38
2022-08-03T10:07:25.430Z,33.28
2022-08-03T10:08:32.160Z,33.16
2022-08-03T10:09:39.223Z,33.08
2022-08-03T10:10:46.487Z,33.03
2022-08-03T10:11:50.670Z,32.84
2022-08-03T10:12:54.829Z,32.79
2022-08-03T10:14:01.445Z,32.63
2022-08-03T10:15:07.157Z,32.54
2022-08-03T10:16:39.925Z,32.57
2022-08-03T10:17:44.115Z,32.55
2022-08-03T10:18:48.068Z,32.48
2022-08-03T10:19:52.392Z,32.47
2022-08-03T10:21:05.602Z,32.45
2022-08-03T10:22:37.505Z,32.43
2022-08-03T10:23:42.887Z,32.42
2022-08-03T10:25:10.063Z,32.41
2022-08-03T10:26:19.403Z,32.38
2022-08-03T10:27:26.975Z,32.37
2022-08-03T10:28:50.129Z,32.31
2022-08-03T10:29:59.316Z,32.32
2022-08-03T10:31:07.987Z,32.27
2022-08-03T10:32:30.795Z,32.24
2022-08-03T10:33:51.765Z,32.18
2022-08-03T10:35:20.112Z,32.06
2022-08-03T10:36:31.037Z,31.98
2022-08-03T10:37:56.428Z,31.84
2022-08-03T10:39:03.928Z,31.76
2022-08-03T10:40:46.802Z,31.63
2022-08-03T10:41:51.100Z,31.60
2022-08-03T10:43:13.433Z,31.59
2022-08-03T10:44:24.911Z,31.53
2022-08-03T10:45:29.275Z,31.54
2022-08-03T10:46:39.289Z,31.56
2022-08-03T10:47:49.132Z,31.56
2022-08-03T10:48:54.224Z,31.45
2022-08-03T10:50:00.285Z,31.42
2022-08-03T10:51:07.055Z,31.36
2022-08-03T10:52:13.794Z,31.32
2022-08-03T10:53:38.295Z,31.26
2022-08-03T10:55:07.548Z,31.25
2022-08-03T10:56:52.232Z,31.23
2022-08-03T10:57:59.183Z,31.22
2022-08-03T10:59:03.713Z,31.06
2022-08-03T11:00:09.734Z,31.18
2022-08-03T11:01:14.627Z,31.16
2022-08-03T11:02:19.808Z,31.14
2022-08-03T11:03:24.020Z,31.09
2022-08-03T11:04:30.331Z,31.06
2022-08-03T11:05:54.644Z,30.97
2022-08-03T11:07:26.091Z,30.89
2022-08-03T11:08:37.479Z,30.83
2022-08-03T11:09:56.465Z,30.77
2022-08-03T11:11:28.798Z,30.64
2022-08-03T11:12:34.318Z,30.57
2022-08-03T11:13:38.927Z,30.50
2022-08-03T11:14:50.517Z,30.42
2022-08-03T11:16:01.690Z,30.35
2022-08-03T11:17:14.440Z,30.31
2022-08-03T11:18:19.215Z,30.27
2022-08-03T11:19:28.245Z,30.24
2022-08-03T11:20:51.374Z,30.23
2022-08-03T11:21:58.059Z,30.20
2022-08-03T11:23:03.236Z,30.17
2022-08-03T11:24:07.546Z,30.14
2022-08-03T11:25:53.969Z,30.16
2022-08-03T11:26:36.498Z,30.16
2022-08-03T11:27:40.568Z,30.16
2022-08-03T11:28:47.443Z,30.15
2022-08-03T11:29:58.381Z,30.15
2022-08-03T11:31:48.743Z,30.10
2022-08-03T11:32:49.191Z,30.22
2022-08-03T11:34:12.548Z,30.22
2022-08-03T11:35:22.949Z,30.21
2022-08-03T11:36:32.002Z,30.20
2022-08-03T11:38:03.004Z,30.17
2022-08-03T11:39:17.284Z,30.18
2022-08-03T11:40:53.024Z,30.20
2022-08-03T11:41:57.057Z,30.20
2022-08-03T11:43:01.903Z,30.18
2022-08-03T11:44:05.968Z,30.15
2022-08-03T11:45:10.184Z,29.96
2022-08-03T11:46:28.472Z,30.14
2022-08-03T11:47:50.881Z,30.14
2022-08-03T11:49:09.979Z,30.16
2022-08-03T11:50:17.390Z,30.16
2022-08-03T11:51:32.399Z,30.16
2022-08-03T11:52:40.610Z,30.15
2022-08-03T11:53:44.766Z,30.18
2022-08-03T11:54:57.023Z,30.13
2022-08-03T11:56:03.494Z,30.11
2022-08-03T11:57:09.206Z,30.07
2022-08-03T11:59:10.607Z,30.01
2022-08-03T11:59:42.676Z,30.00
2022-08-03T12:00:47.139Z,29.97
2022-08-03T12:01:51.539Z,29.92
2022-08-03T12:03:08.921Z,29.93
2022-08-03T12:04:13.056Z,29.88
2022-08-03T12:05:17.137Z,29.81
2022-08-03T12:06:21.318Z,29.87
2022-08-03T12:08:03.212Z,29.86
2022-08-03T12:08:52.078Z,29.83
2022-08-03T12:10:14.671Z,29.83
2022-08-03T12:11:18.954Z,29.83
2022-08-03T12:12:22.979Z,29.79
2022-08-03T12:14:43.924Z,29.79
2022-08-03T12:15:07.532Z,29.79
2022-08-03T12:16:19.035Z,29.73
2022-08-03T12:17:23.185Z,29.83
2022-08-03T12:18:27.487Z,29.83
2022-08-03T12:19:44.026Z,29.82
2022-08-03T12:20:51.167Z,29.85
2022-08-03T12:21:57.225Z,29.87
2022-08-03T12:23:07.598Z,29.86
2022-08-03T12:24:12.505Z,29.79
2022-08-03T12:25:39.049Z,29.85
2022-08-03T12:26:58.372Z,29.89
2022-08-03T12:28:36.037Z,29.87
2022-08-03T12:29:37.871Z,29.86
2022-08-03T12:30:42.477Z,29.84
2022-08-03T12:31:46.808Z,29.83
2022-08-03T12:32:50.939Z,29.80
2022-08-03T12:34:03.567Z,29.72
2022-08-03T12:35:08.712Z,29.78
2022-08-03T12:36:12.923Z,29.77
2022-08-03T12:37:23.977Z,29.72
2022-08-03T12:38:29.659Z,29.76
2022-08-03T12:39:34.744Z,29.78
2022-08-03T12:40:39.097Z,29.73
2022-08-03T12:41:43.401Z,29.74
2022-08-03T12:42:47.828Z,29.72
2022-08-03T12:43:52.465Z,29.73
2022-08-03T12:44:56.591Z,29.72
2022-08-03T12:46:20.134Z,29.74
2022-08-03T12:47:24.211Z,29.75
2022-08-03T12:48:29.676Z,29.75
2022-08-03T12:49:52.824Z,29.74
2022-08-03T12:51:11.057Z,29.65
2022-08-03T12:52:16.464Z,29.68
2022-08-03T12:53:30.526Z,29.73
2022-08-03T12:54:36.382Z,29.69
2022-08-03T12:55:57.930Z,29.69
2022-08-03T12:57:15.633Z,29.71
2022-08-03T12:58:35.563Z,29.57
2022-08-03T12:59:53.265Z,29.62
2022-08-03T13:00:57.967Z,29.59
2022-08-03T13:02:04.329Z,29.60
2022-08-03T13:03:38.892Z,29.61
2022-08-03T13:04:38.202Z,29.62
2022-08-03T13:05:45.936Z,29.55
2022-08-03T13:07:02.755Z,29.56
2022-08-03T13:08:23.125Z,29.53
2022-08-03T13:09:29.005Z,29.56
2022-08-03T13:10:35.530Z,29.51
2022-08-03T13:11:55.507Z,29.53
2022-08-03T13:13:03.868Z,29.52
2022-08-03T13:14:07.950Z,29.50
2022-08-03T13:15:11.893Z,29.46
2022-08-03T13:16:19.296Z,29.54
2022-08-03T13:17:24.103Z,29.54
2022-08-03T13:18:28.250Z,29.54
2022-08-03T13:19:34.758Z,29.51
2022-08-03T13:20:39.336Z,29.51
2022-08-03T13:21:53.523Z,29.53
2022-08-03T13:23:15.389Z,29.56
2022-08-03T13:24:26.535Z,29.55
2022-08-03T13:25:31.264Z,29.54
2022-08-03T13:26:35.505Z,29.53
2022-08-03T13:28:13.911Z,29.54
2022-08-03T13:29:04.655Z,29.58
2022-08-03T13:30:10.577Z,29.58
2022-08-03T13:31:14.651Z,29.55
2022-08-03T13:32:18.783Z,29.60
2022-08-03T13:33:22.996Z,29.60
2022-08-03T13:34:27.099Z,29.62
2022-08-03T13:35:30.973Z,29.62
2022-08-03T13:36:59.162Z,29.61
2022-08-03T13:37:59.911Z,29.63
2022-08-03T13:39:04.307Z,29.57
2022-08-03T13:40:13.298Z,29.66
2022-08-03T13:41:18.746Z,29.68
2022-08-03T13:42:38.817Z,29.67
2022-08-03T13:43:43.431Z,29.69
2022-08-03T13:44:47.383Z,29.63
2022-08-03T13:45:54.983Z,29.62
2022-08-03T13:47:01.999Z,29.64
2022-08-03T13:48:06.824Z,29.67
2022-08-03T13:49:10.732Z,29.65
2022-08-03T13:50:15.926Z,29.69
2022-08-03T13:51:22.602Z,29.59
2022-08-03T13:52:27.226Z,29.66
2022-08-03T13:53:31.727Z,29.67
2022-08-03T13:54:36.561Z,29.64
2022-08-03T13:55:40.693Z,29.67
2022-08-03T13:56:50.285Z,29.66
2022-08-03T13:58:03.563Z,29.69
2022-08-03T13:59:11.382Z,29.69
2022-08-03T14:00:27.058Z,29.65
2022-08-03T14:01:54.252Z,29.72
2022-08-03T14:03:10.844Z,29.75
2022-08-03T14:04:22.110Z,29.78
2022-08-03T14:05:26.837Z,29.79
2022-08-03T14:06:31.697Z,29.80
2022-08-03T14:07:35.794Z,29.79
2022-08-03T14:08:40.025Z,29.80
2022-08-03T14:09:44.152Z,29.80
2022-08-03T14:10:48.319Z,29.80
2022-08-03T14:12:07.741Z,29.81
2022-08-03T14:13:17.753Z,29.80
2022-08-03T14:14:22.460Z,29.79
2022-08-03T14:15:26.958Z,29.80
2022-08-03T14:16:31.159Z,29.82
2022-08-03T14:17:42.054Z,29.83
2022-08-03T14:18:53.505Z,29.82
2022-08-03T14:19:57.404Z,29.86
2022-08-03T14:21:06.318Z,29.86
2022-08-03T14:22:10.941Z,29.85
2022-08-03T14:23:16.052Z,29.83
2022-08-03T14:24:19.954Z,29.84
2022-08-03T14:25:24.079Z,29.83
2022-08-03T14:26:28.164Z,29.80
2022-08-03T14:27:32.508Z,29.81
2022-08-03T14:28:37.069Z,29.80
2022-08-03T14:29:42.725Z,29.82
2022-08-03T14:30:48.066Z,29.83
2022-08-03T14:32:11.016Z,29.81
2022-08-03T14:33:16.556Z,29.78
2022-08-03T14:34:20.839Z,29.84
2022-08-03T14:35:25.516Z,29.84
2022-08-03T14:36:29.773Z,29.81
2022-08-03T14:37:34.085Z,29.81
2022-08-03T14:38:38.105Z,29.81
2022-08-03T14:41:06.365Z,29.82
2022-08-03T14:42:17.111Z,29.87
2022-08-03T14:43:21.789Z,29.86
2022-08-03T14:44:25.870Z,29.87
2022-08-03T14:45:30.242Z,29.85
2022-08-03T14:46:34.338Z,29.85
2022-08-03T14:50:27.763Z,29.84
2022-08-03T14:50:35.758Z,29.88
2022-08-03T14:50:42.072Z,29.84
2022-08-03T14:51:51.671Z,29.79
2022-08-03T14:52:58.446Z,29.86
2022-08-03T14:54:02.758Z,29.84
2022-08-03T14:55:07.177Z,29.81
2022-08-03T14:56:11.721Z,29.79
2022-08-03T14:57:15.892Z,29.76